Time;durP1;ratioP1;P1;durP2;ratioP2;P2;SDS_P1;SDS_P2;PMS_P1;PMS_P2;Temp;Humidity;BMP_temperature;BMP_pressure;BME280_temperature;BME280_humidity;BME280_pressure;Samples;Min_cycle;Max_cycle;Signal;HPM_P1;HPM_P2
2023/08/23 00:01:09;;;;;;;913.97;129.82;;;20.40;99.90;;;;;;5032298;28;20112;-57
2023/08/23 00:03:34;;;;;;;8.68;5.60;;;20.40;99.90;;;;;;5032921;28;20078;-56
2023/08/23 00:06:00;;;;;;;155.77;24.45;;;20.40;99.90;;;;;;5030032;28;20022;-57
2023/08/23 00:08:26;;;;;;;62.35;14.25;;;20.40;99.90;;;;;;5034155;28;20033;-58
2023/08/23 00:10:55;;;;;;;1999.90;999.90;;;20.30;99.90;;;;;;5034694;28;20026;-58
2023/08/23 00:13:22;;;;;;;1999.90;999.90;;;20.20;99.90;;;;;;5029971;28;20450;-59
2023/08/23 00:15:47;;;;;;;75.60;9.93;;;20.10;99.90;;;;;;5031707;28;20018;-57
2023/08/23 00:18:13;;;;;;;168.38;52.47;;;20.00;99.90;;;;;;5034250;28;20114;-57
2023/08/23 00:20:39;;;;;;;399.60;51.40;;;20.00;99.90;;;;;;5029395;28;20041;-57
2023/08/23 00:23:05;;;;;;;427.63;97.30;;;19.90;99.90;;;;;;5031600;28;20041;-57
2023/08/23 00:25:30;;;;;;;5.28;4.70;;;19.90;99.90;;;;;;5027927;28;20096;-57
2023/08/23 00:27:59;;;;;;;7.05;4.60;;;19.80;99.90;;;;;;5030721;28;20120;-58
2023/08/23 00:30:25;;;;;;;222.63;80.50;;;19.80;99.90;;;;;;5030949;28;20025;-58
2023/08/23 00:32:50;;;;;;;64.60;30.77;;;19.80;99.90;;;;;;5031532;28;20817;-58
2023/08/23 00:35:16;;;;;;;6.95;5.35;;;19.70;99.90;;;;;;5027674;28;20034;-56
2023/08/23 00:37:41;;;;;;;1999.90;999.90;;;19.70;99.90;;;;;;5024136;28;20617;-58
2023/08/23 00:40:10;;;;;;;1999.90;999.90;;;19.70;99.90;;;;;;5035263;28;20041;-57
2023/08/23 00:42:36;;;;;;;1999.90;999.90;;;19.60;99.90;;;;;;5026887;28;20143;-57
2023/08/23 00:45:02;;;;;;;1999.90;999.90;;;19.60;99.90;;;;;;5035582;28;20108;-55
2023/08/23 00:47:28;;;;;;;1999.90;999.90;;;19.50;99.90;;;;;;5023933;28;20017;-58
2023/08/23 00:49:56;;;;;;;1999.90;999.90;;;19.50;99.90;;;;;;5023702;28;20030;-58
2023/08/23 00:52:21;;;;;;;1999.90;999.90;;;19.50;99.90;;;;;;5034768;28;20442;-59
2023/08/23 00:54:47;;;;;;;1999.90;999.90;;;19.40;99.90;;;;;;5029241;28;20029;-57
2023/08/23 00:57:14;;;;;;;1999.90;999.90;;;19.40;99.90;;;;;;5025404;28;20421;-58
2023/08/23 00:59:41;;;;;;;1999.90;999.90;;;19.40;99.90;;;;;;5030704;28;20493;-57
2023/08/23 01:02:08;;;;;;;1999.90;999.90;;;19.30;99.90;;;;;;5027661;28;20042;-57
2023/08/23 01:04:33;;;;;;;5.63;4.13;;;19.30;99.90;;;;;;5030876;28;20057;-59
2023/08/23 01:07:14;;;;;;;8.63;4.45;;;19.30;99.90;;;;;;5032189;28;20049;-58
2023/08/23 01:09:48;;;;;;;6.53;4.38;;;19.30;99.90;;;;;;5030132;28;20166;-58
2023/08/23 01:12:37;;;;;;;5.07;4.00;;;19.20;99.90;;;;;;5029513;28;20087;-58
2023/08/23 01:15:05;;;;;;;4.18;3.88;;;19.10;99.90;;;;;;5026141;28;20050;-56
2023/08/23 01:17:31;;;;;;;6.28;4.38;;;19.00;99.90;;;;;;5028621;28;20882;-58
2023/08/23 01:19:59;;;;;;;5.22;4.75;;;18.90;99.90;;;;;;5028385;28;20037;-58
2023/08/23 01:22:29;;;;;;;4.43;3.90;;;18.80;99.90;;;;;;5032520;28;20034;-58
2023/08/23 01:24:55;;;;;;;8.25;4.45;;;18.70;99.90;;;;;;5027266;28;20029;-59
2023/08/23 01:27:21;;;;;;;7.20;5.72;;;18.60;99.90;;;;;;5025014;28;20670;-59
2023/08/23 01:29:47;;;;;;;4.90;4.43;;;18.50;99.90;;;;;;5035750;28;20166;-56
2023/08/23 01:32:36;;;;;;;6.63;4.80;;;18.50;99.90;;;;;;5030038;28;20048;-56
2023/08/23 01:35:10;;;;;;;6.28;5.35;;;18.50;99.90;;;;;;5029329;28;20037;-57
2023/08/23 01:37:39;;;;;;;8.48;5.03;;;18.50;99.90;;;;;;5027325;28;20510;-59
2023/08/23 01:40:10;;;;;;;5.40;4.90;;;18.50;99.90;;;;;;5030424;28;20030;-58
2023/08/23 01:42:36;;;;;;;6.30;5.63;;;18.50;99.90;;;;;;5029134;28;20397;-58
2023/08/23 01:45:04;;;;;;;6.20;5.55;;;18.50;99.90;;;;;;5028601;28;20020;-58
2023/08/23 01:47:29;;;;;;;12.38;5.13;;;18.50;99.90;;;;;;5027128;28;20375;-58
2023/08/23 01:49:55;;;;;;;5.55;5.05;;;18.40;99.90;;;;;;5032489;28;20036;-57
2023/08/23 01:52:20;;;;;;;6.97;6.07;;;18.40;99.90;;;;;;5031233;28;20033;-59
2023/08/23 01:54:46;;;;;;;8.20;5.47;;;18.40;99.90;;;;;;5024384;28;20026;-57
2023/08/23 01:57:12;;;;;;;5.90;5.30;;;18.50;99.90;;;;;;5022724;28;20029;-58
2023/08/23 01:59:37;;;;;;;6.15;5.43;;;18.40;99.90;;;;;;5024612;28;20022;-57
2023/08/23 02:02:04;;;;;;;7.03;5.55;;;18.40;99.90;;;;;;5024736;28;20033;-56
2023/08/23 02:04:29;;;;;;;6.47;5.47;;;18.40;99.90;;;;;;5029042;28;20033;-57
2023/08/23 02:06:55;;;;;;;8.13;5.65;;;18.30;99.90;;;;;;5030381;28;20033;-58
2023/08/23 02:09:20;;;;;;;6.05;5.55;;;18.20;99.90;;;;;;5029406;28;20029;-57
2023/08/23 02:11:46;;;;;;;6.22;5.03;;;18.20;99.90;;;;;;5031719;28;20030;-58
2023/08/23 02:14:11;;;;;;;6.82;5.40;;;18.10;99.90;;;;;;5025062;28;20501;-58
2023/08/23 02:16:37;;;;;;;6.05;5.50;;;18.10;99.90;;;;;;5022245;28;20163;-56
2023/08/23 02:19:03;;;;;;;6.07;5.32;;;18.20;99.90;;;;;;5022526;28;20049;-58
2023/08/23 02:21:29;;;;;;;6.53;4.90;;;18.20;99.90;;;;;;5028179;28;20032;-60
2023/08/23 02:23:55;;;;;;;5.88;5.28;;;18.10;99.90;;;;;;5017554;28;20033;-58
2023/08/23 02:26:21;;;;;;;7.35;5.45;;;18.20;99.90;;;;;;5017774;28;20068;-58
2023/08/23 02:28:46;;;;;;;5.57;5.03;;;18.20;99.90;;;;;;5019075;28;20068;-56
2023/08/23 02:31:12;;;;;;;12.65;5.57;;;18.10;99.90;;;;;;5025510;28;20036;-58
2023/08/23 02:33:38;;;;;;;9.60;5.40;;;18.20;99.90;;;;;;5026910;28;20033;-56
2023/08/23 02:36:03;;;;;;;6.50;4.88;;;18.20;99.90;;;;;;5026493;28;20037;-57
2023/08/23 02:38:29;;;;;;;8.48;5.05;;;18.10;99.90;;;;;;5028690;28;20040;-57
2023/08/23 02:40:58;;;;;;;841.45;239.45;;;18.10;99.90;;;;;;5026662;28;20061;-57
2023/08/23 02:43:24;;;;;;;1999.90;242.45;;;18.10;99.90;;;;;;5026032;28;20113;-58
2023/08/23 02:45:49;;;;;;;1090.22;258.77;;;18.10;99.90;;;;;;5027140;28;20633;-59
2023/08/23 02:48:15;;;;;;;6.45;5.88;;;18.00;99.90;;;;;;5030682;28;20033;-58
2023/08/23 02:50:42;;;;;;;6.25;5.45;;;18.00;99.90;;;;;;5025962;28;20104;-59
2023/08/23 02:53:08;;;;;;;8.07;6.15;;;18.00;99.90;;;;;;5026471;28;20034;-59
2023/08/23 02:55:36;;;;;;;6.65;5.88;;;18.00;99.90;;;;;;5025132;28;20028;-60
2023/08/23 02:58:02;;;;;;;6.47;5.93;;;17.90;99.90;;;;;;5023305;28;20667;-57
2023/08/23 03:00:27;;;;;;;6.80;6.00;;;17.90;99.90;;;;;;5024888;28;20036;-60
2023/08/23 03:02:53;;;;;;;7.60;6.30;;;17.90;99.90;;;;;;5028571;28;20155;-57
2023/08/23 03:05:19;;;;;;;6.57;5.80;;;17.80;99.90;;;;;;5027152;28;20029;-58
2023/08/23 03:07:44;;;;;;;9.65;5.80;;;17.80;99.90;;;;;;5027155;28;20116;-58
2023/08/23 03:10:10;;;;;;;7.50;5.85;;;17.80;99.90;;;;;;5031112;28;20069;-57
2023/08/23 03:12:36;;;;;;;10.45;5.70;;;17.80;99.90;;;;;;5030329;28;20510;-58
2023/08/23 03:15:03;;;;;;;7.53;6.28;;;17.80;99.90;;;;;;5030035;28;20033;-60
2023/08/23 03:17:28;;;;;;;826.45;290.42;;;17.80;99.90;;;;;;5025433;28;20470;-60
2023/08/23 03:19:56;;;;;;;5.45;5.05;;;17.70;99.90;;;;;;5023843;28;20107;-59
2023/08/23 03:22:21;;;;;;;9.40;6.32;;;17.70;99.90;;;;;;5027881;28;20041;-57
2023/08/23 03:24:47;;;;;;;7.10;6.30;;;17.70;99.90;;;;;;5030604;28;20443;-56
2023/08/23 03:27:13;;;;;;;6.75;6.15;;;17.60;99.90;;;;;;5026621;28;20069;-57
2023/08/23 03:29:38;;;;;;;6.70;6.10;;;17.60;99.90;;;;;;5026319;28;20026;-58
2023/08/23 03:32:04;;;;;;;6.35;5.75;;;17.50;99.90;;;;;;5025531;28;20033;-57
2023/08/23 03:34:30;;;;;;;8.35;6.38;;;17.40;99.90;;;;;;5028150;28;20037;-57
2023/08/23 03:36:55;;;;;;;7.05;6.35;;;17.30;99.90;;;;;;5021690;28;20731;-56
2023/08/23 03:39:21;;;;;;;8.38;6.47;;;17.20;99.90;;;;;;5022519;28;20021;-55
2023/08/23 03:41:47;;;;;;;11.27;6.10;;;17.10;99.90;;;;;;5025247;28;20136;-58
2023/08/23 03:44:13;;;;;;;9.48;5.70;;;17.00;99.90;;;;;;5025365;28;20030;-59
2023/08/23 03:46:38;;;;;;;6.45;5.10;;;17.00;99.90;;;;;;5022325;28;20026;-56
2023/08/23 03:49:04;;;;;;;5.55;4.80;;;16.90;99.90;;;;;;5026138;28;20032;-58
2023/08/23 03:51:30;;;;;;;9.82;4.75;;;16.90;99.90;;;;;;5023912;28;20076;-56
2023/08/23 03:53:56;;;;;;;5.45;4.90;;;16.90;99.90;;;;;;5026786;28;20035;-56
2023/08/23 03:56:22;;;;;;;7.45;4.72;;;16.90;99.90;;;;;;5028110;28;20033;-59
2023/08/23 03:58:49;;;;;;;10.57;5.28;;;16.90;99.90;;;;;;5028977;28;20030;-60
2023/08/23 04:01:14;;;;;;;6.32;5.63;;;16.90;99.90;;;;;;5030672;28;20029;-56
2023/08/23 04:03:40;;;;;;;8.95;5.93;;;16.90;99.90;;;;;;5027220;28;20109;-58
2023/08/23 04:06:06;;;;;;;6.88;5.38;;;16.90;99.90;;;;;;5027547;28;20784;-57
2023/08/23 04:08:31;;;;;;;5.65;4.03;;;16.90;99.90;;;;;;5030678;28;20122;-58
2023/08/23 04:10:57;;;;;;;3.17;2.97;;;16.80;99.90;;;;;;5028317;28;20032;-56
2023/08/23 04:13:22;;;;;;;4.47;3.35;;;16.60;99.90;;;;;;5028225;28;20037;-55
2023/08/23 04:15:48;;;;;;;7.38;4.00;;;16.60;99.90;;;;;;5032619;28;20029;-57
2023/08/23 04:18:14;;;;;;;5.43;4.63;;;16.50;99.90;;;;;;5038359;28;20104;-58
2023/08/23 04:20:41;;;;;;;4.80;4.40;;;16.40;99.90;;;;;;5029509;28;20080;-58
2023/08/23 04:23:07;;;;;;;7.22;4.82;;;16.40;99.90;;;;;;5028763;28;20458;-59
2023/08/23 04:25:33;;;;;;;6.03;5.53;;;16.40;99.90;;;;;;5027266;28;20064;-58
2023/08/23 04:27:58;;;;;;;5.53;4.57;;;16.30;99.90;;;;;;5008618;28;20028;-59
2023/08/23 04:30:24;;;;;;;6.18;5.57;;;16.30;99.90;;;;;;5028225;28;20046;-59
2023/08/23 04:32:49;;;;;;;6.75;5.30;;;16.30;99.90;;;;;;5029295;28;20033;-59
2023/08/23 04:35:15;;;;;;;6.15;5.47;;;16.20;99.90;;;;;;5031467;28;20053;-57
2023/08/23 04:37:41;;;;;;;6.20;5.57;;;16.20;99.90;;;;;;5031901;28;20124;-58
2023/08/23 04:40:07;;;;;;;6.65;5.47;;;16.20;99.90;;;;;;5030935;28;20036;-59
2023/08/23 04:42:34;;;;;;;5.57;5.07;;;16.20;99.90;;;;;;5030529;28;20021;-58
2023/08/23 04:45:00;;;;;;;5.97;4.90;;;16.30;99.90;;;;;;5029347;28;20033;-59
2023/08/23 04:47:27;;;;;;;7.80;5.15;;;16.30;99.90;;;;;;5025447;28;20013;-57
2023/08/23 04:49:53;;;;;;;6.00;5.45;;;16.30;99.90;;;;;;5038182;28;20063;-58
2023/08/23 04:52:18;;;;;;;8.07;5.88;;;16.30;99.90;;;;;;5027017;28;20026;-58
2023/08/23 04:54:44;;;;;;;7.07;6.38;;;16.30;99.90;;;;;;5020435;28;20034;-58
2023/08/23 04:57:10;;;;;;;10.85;6.25;;;16.30;99.90;;;;;;5019476;28;20687;-55
2023/08/23 04:59:35;;;;;;;6.88;6.03;;;16.30;99.90;;;;;;5022021;28;20071;-59
2023/08/23 05:02:01;;;;;;;6.38;5.82;;;16.30;99.90;;;;;;5027179;28;20490;-58
2023/08/23 05:04:27;;;;;;;6.03;5.53;;;16.30;99.90;;;;;;5028354;28;20502;-58
2023/08/23 05:06:52;;;;;;;6.95;6.30;;;16.40;99.90;;;;;;5023171;28;20088;-59
2023/08/23 05:09:18;;;;;;;6.97;6.32;;;16.50;99.90;;;;;;5028407;28;20026;-58
2023/08/23 05:11:44;;;;;;;8.20;7.40;;;16.50;99.90;;;;;;5028845;28;20387;-57
2023/08/23 05:14:09;;;;;;;7.88;7.07;;;16.60;99.90;;;;;;5025589;28;20572;-56
2023/08/23 05:16:35;;;;;;;9.75;7.75;;;16.70;99.90;;;;;;5026680;28;20049;-58
2023/08/23 05:19:01;;;;;;;13.90;7.45;;;16.70;99.90;;;;;;5026109;28;20038;-59
2023/08/23 05:21:26;;;;;;;8.45;7.20;;;16.90;99.90;;;;;;5027590;28;20489;-59
2023/08/23 05:23:52;;;;;;;9.65;7.03;;;16.90;99.90;;;;;;5020829;28;20071;-57
2023/08/23 05:26:18;;;;;;;8.20;7.05;;;17.00;99.90;;;;;;5027402;28;20037;-56
2023/08/23 05:28:44;;;;;;;8.02;7.22;;;17.10;99.90;;;;;;5024395;28;20709;-59
2023/08/23 05:31:09;;;;;;;8.23;7.07;;;17.20;99.90;;;;;;5023427;28;20498;-57
2023/08/23 05:33:35;;;;;;;9.20;7.25;;;17.20;99.90;;;;;;5024764;28;20033;-59
2023/08/23 05:36:01;;;;;;;7.15;6.55;;;17.30;99.90;;;;;;5028850;28;20090;-58
2023/08/23 05:38:28;;;;;;;9.77;6.50;;;17.40;99.90;;;;;;5037288;28;20032;-58
2023/08/23 05:40:54;;;;;;;7.32;6.70;;;17.50;99.90;;;;;;5025079;28;20041;-59
2023/08/23 05:43:20;;;;;;;9.90;6.53;;;17.50;99.90;;;;;;5024942;28;20030;-58
2023/08/23 05:45:45;;;;;;;11.05;7.57;;;17.60;99.90;;;;;;5026062;28;20830;-58
2023/08/23 05:48:12;;;;;;;13.43;6.57;;;17.60;99.90;;;;;;5025687;28;20029;-58
2023/08/23 05:50:38;;;;;;;6.80;6.10;;;17.70;99.90;;;;;;5025934;28;20020;-59
2023/08/23 05:53:09;;;;;;;6.95;6.35;;;17.70;99.90;;;;;;5028894;28;20404;-56
2023/08/23 05:55:35;;;;;;;14.48;8.80;;;17.80;99.90;;;;;;5028846;28;20057;-58
2023/08/23 05:58:01;;;;;;;9.52;8.52;;;17.90;99.90;;;;;;5028813;28;20125;-58
2023/08/23 06:00:27;;;;;;;11.82;8.55;;;17.90;99.90;;;;;;5026584;28;20025;-55
2023/08/23 06:02:53;;;;;;;10.73;7.55;;;18.00;99.90;;;;;;5029525;28;20101;-59
2023/08/23 06:05:19;;;;;;;9.05;6.47;;;18.00;99.90;;;;;;5027248;28;20030;-58
2023/08/23 06:07:44;;;;;;;7.32;6.72;;;18.10;99.90;;;;;;5024400;28;20387;-59
2023/08/23 06:10:10;;;;;;;8.40;6.53;;;18.10;99.90;;;;;;5025854;28;20196;-57
2023/08/23 06:12:36;;;;;;;10.65;4.63;;;18.20;99.90;;;;;;5030701;28;20032;-58
2023/08/23 06:15:04;;;;;;;6.95;5.65;;;18.30;99.90;;;;;;5025415;28;20029;-56
2023/08/23 06:17:30;;;;;;;18.67;8.75;;;18.30;99.90;;;;;;5026991;28;20208;-57
2023/08/23 06:19:55;;;;;;;10.90;7.38;;;18.40;99.90;;;;;;5025903;28;20134;-58
2023/08/23 06:22:21;;;;;;;10.02;8.15;;;18.50;99.90;;;;;;5027376;28;20040;-57
2023/08/23 06:24:47;;;;;;;5.65;5.13;;;18.50;99.90;;;;;;5028169;28;20036;-59
2023/08/23 06:27:12;;;;;;;13.35;6.13;;;18.60;99.90;;;;;;5027302;28;20030;-58
2023/08/23 06:29:39;;;;;;;11.15;8.23;;;18.70;99.90;;;;;;5027865;28;20018;-56
2023/08/23 06:32:06;;;;;;;5.43;4.93;;;18.70;99.90;;;;;;5028002;28;20066;-58
2023/08/23 06:34:32;;;;;;;6.50;5.95;;;18.80;99.90;;;;;;5024446;28;20041;-58
2023/08/23 06:36:57;;;;;;;6.75;6.15;;;18.80;99.90;;;;;;5030700;28;20444;-58
2023/08/23 06:39:23;;;;;;;6.93;5.97;;;18.90;99.90;;;;;;5028698;28;20025;-58
2023/08/23 06:41:49;;;;;;;8.30;5.82;;;18.90;99.90;;;;;;5029360;28;20056;-57
2023/08/23 06:44:15;;;;;;;7.25;5.97;;;19.00;99.90;;;;;;5030345;28;20069;-58
2023/08/23 06:46:40;;;;;;;6.32;5.05;;;19.10;99.90;;;;;;5030209;28;20037;-56
2023/08/23 06:49:06;;;;;;;6.03;4.72;;;19.10;99.90;;;;;;5029905;28;20014;-59
2023/08/23 06:51:32;;;;;;;5.82;4.22;;;19.20;99.90;;;;;;5028277;28;20036;-58
2023/08/23 06:53:57;;;;;;;9.35;4.50;;;19.20;99.90;;;;;;5031226;28;20026;-58
2023/08/23 06:56:25;;;;;;;8.02;5.40;;;19.30;99.90;;;;;;5021522;28;20836;-56
2023/08/23 06:58:50;;;;;;;5.90;5.00;;;19.40;99.90;;;;;;5024412;28;20036;-59
2023/08/23 07:01:16;;;;;;;5.43;4.78;;;19.50;99.90;;;;;;5027638;28;20905;-57
2023/08/23 07:03:43;;;;;;;3.70;3.40;;;19.50;99.90;;;;;;5024407;28;20095;-58
2023/08/23 07:06:13;;;;;;;5.28;4.05;;;19.60;99.90;;;;;;5030090;28;20497;-58
2023/08/23 07:08:40;;;;;;;5.97;5.38;;;19.70;99.90;;;;;;5016749;28;20022;-59
2023/08/23 07:11:06;;;;;;;5.32;4.63;;;19.80;99.90;;;;;;5030977;28;20172;-60
2023/08/23 07:13:34;;;;;;;8.25;5.05;;;19.90;99.90;;;;;;5027508;28;20117;-57
2023/08/23 07:16:00;;;;;;;10.13;4.93;;;19.90;99.90;;;;;;5020006;28;20029;-55
2023/08/23 07:18:26;;;;;;;6.25;3.45;;;20.00;99.90;;;;;;5034126;28;20033;-57
2023/08/23 07:20:51;;;;;;;5.72;5.00;;;20.00;99.90;;;;;;5037292;28;20159;-59
2023/08/23 07:23:17;;;;;;;10.50;5.80;;;20.10;99.90;;;;;;5018642;28;20037;-56
2023/08/23 07:25:44;;;;;;;9.23;5.53;;;20.30;99.90;;;;;;5018975;28;20156;-58
2023/08/23 07:28:10;;;;;;;5.75;5.22;;;20.40;99.90;;;;;;5019179;28;20044;-58
2023/08/23 07:30:35;;;;;;;6.13;4.43;;;20.40;99.90;;;;;;5027603;28;20041;-59
2023/08/23 07:33:01;;;;;;;6.18;3.58;;;20.60;99.90;;;;;;5031274;28;20087;-59
2023/08/23 07:35:27;;;;;;;3.17;2.88;;;20.70;99.90;;;;;;5032279;28;20096;-59
2023/08/23 07:37:52;;;;;;;7.63;4.38;;;20.80;99.90;;;;;;5031684;28;20032;-58
2023/08/23 07:40:18;;;;;;;7.78;4.05;;;20.90;99.90;;;;;;5027286;28;20053;-59
2023/08/23 07:42:44;;;;;;;8.18;4.40;;;20.90;99.90;;;;;;5022592;28;20025;-57
2023/08/23 07:45:10;;;;;;;8.13;4.70;;;21.00;99.90;;;;;;5029471;28;20037;-57
2023/08/23 07:47:36;;;;;;;6.90;4.60;;;21.10;99.90;;;;;;5029725;28;20034;-59
2023/08/23 07:50:03;;;;;;;6.45;4.38;;;21.10;99.90;;;;;;5023564;28;20033;-58
2023/08/23 07:52:29;;;;;;;6.88;4.30;;;21.20;99.90;;;;;;5024058;28;20075;-58
2023/08/23 07:54:54;;;;;;;9.18;3.50;;;21.30;99.90;;;;;;5030245;28;20064;-58
2023/08/23 07:57:20;;;;;;;7.93;3.83;;;21.40;99.90;;;;;;5029029;28;20029;-58
2023/08/23 07:59:45;;;;;;;5.90;3.95;;;21.50;99.90;;;;;;5028029;28;20018;-56
2023/08/23 08:02:11;;;;;;;8.50;4.03;;;21.50;99.90;;;;;;5027027;28;20030;-58
2023/08/23 08:04:37;;;;;;;7.55;4.00;;;21.60;99.90;;;;;;5025521;28;20033;-59
2023/08/23 08:07:03;;;;;;;6.50;4.07;;;21.70;99.90;;;;;;5026681;28;20059;-57
2023/08/23 08:09:29;;;;;;;5.47;4.53;;;21.80;99.90;;;;;;5022894;28;20029;-59
2023/08/23 08:11:55;;;;;;;4.22;3.70;;;21.90;99.90;;;;;;5024430;28;20037;-57
2023/08/23 08:14:20;;;;;;;12.48;4.70;;;22.00;99.90;;;;;;5026742;28;20038;-58
2023/08/23 08:16:46;;;;;;;11.18;4.20;;;22.10;99.90;;;;;;5025614;28;20053;-57
2023/08/23 08:19:12;;;;;;;10.48;4.93;;;22.20;99.90;;;;;;5026332;28;20152;-58
2023/08/23 08:21:37;;;;;;;2.10;1.98;;;22.20;99.90;;;;;;5028736;28;20025;-59
2023/08/23 08:24:03;;;;;;;2.17;1.55;;;22.30;99.90;;;;;;5025947;28;20088;-57
2023/08/23 08:26:29;;;;;;;6.38;4.43;;;22.40;99.90;;;;;;5026219;28;20030;-58
2023/08/23 08:28:54;;;;;;;2.20;1.73;;;22.50;99.90;;;;;;5028838;28;20112;-59
2023/08/23 08:31:20;;;;;;;4.70;2.90;;;22.60;99.90;;;;;;5026783;28;20033;-59
2023/08/23 08:33:46;;;;;;;4.85;1.67;;;22.60;99.90;;;;;;5026942;28;20636;-59
2023/08/23 08:36:13;;;;;;;3.50;3.10;;;22.70;99.90;;;;;;5030028;28;20038;-56
2023/08/23 08:38:38;;;;;;;2.95;1.85;;;22.80;99.90;;;;;;5029685;28;20071;-57
2023/08/23 08:41:05;;;;;;;4.15;2.10;;;22.90;99.90;;;;;;5029013;28;20459;-58
2023/08/23 08:43:31;;;;;;;3.17;2.83;;;22.90;99.90;;;;;;5028238;28;20060;-59
2023/08/23 08:45:57;;;;;;;3.13;2.78;;;23.00;99.90;;;;;;5029456;28;20506;-58
2023/08/23 08:48:23;;;;;;;6.47;3.45;;;23.10;99.90;;;;;;5028038;28;20030;-58
2023/08/23 08:50:49;;;;;;;8.73;2.85;;;23.10;99.90;;;;;;5029082;28;20025;-59
2023/08/23 08:53:18;;;;;;;3.13;2.60;;;23.20;99.90;;;;;;5026632;28;20037;-58
2023/08/23 08:55:45;;;;;;;5.65;2.13;;;23.30;99.90;;;;;;5029852;28;20036;-56
2023/08/23 08:58:15;;;;;;;2.83;1.92;;;23.30;99.90;;;;;;5029115;28;20038;-58
2023/08/23 09:00:43;;;;;;;5.63;1.73;;;23.40;99.90;;;;;;5023194;28;20034;-57
2023/08/23 09:03:09;;;;;;;3.00;1.90;;;23.50;99.90;;;;;;5020796;28;20025;-57
2023/08/23 09:05:36;;;;;;;4.05;1.80;;;23.60;99.90;;;;;;5020435;28;20125;-58
2023/08/23 09:08:02;;;;;;;4.22;2.00;;;23.60;99.90;;;;;;5023955;28;20037;-59
2023/08/23 09:10:27;;;;;;;3.92;2.35;;;23.70;99.90;;;;;;5028785;28;20092;-58
2023/08/23 09:12:53;;;;;;;4.93;2.70;;;23.80;99.90;;;;;;5026806;28;20034;-59
2023/08/23 09:15:23;;;;;;;3.00;2.67;;;24.00;99.90;;;;;;5025721;28;20030;-59
2023/08/23 09:17:54;;;;;;;9.05;2.97;;;24.10;99.90;;;;;;5027785;28;20033;-59
2023/08/23 09:20:21;;;;;;;4.47;2.47;;;24.30;99.90;;;;;;5028601;28;20041;-56
2023/08/23 09:22:54;;;;;;;8.13;2.42;;;24.40;99.90;;;;;;5029330;28;20112;-59
2023/08/23 09:25:21;;;;;;;3.65;2.08;;;24.50;99.90;;;;;;5027219;28;20021;-57
2023/08/23 09:27:47;;;;;;;3.15;2.03;;;24.80;99.90;;;;;;5024926;28;20022;-58
2023/08/23 09:30:13;;;;;;;3.15;2.20;;;24.90;99.90;;;;;;5029498;28;20036;-57
2023/08/23 09:32:39;;;;;;;5.65;2.30;;;25.00;99.90;;;;;;5028909;28;20014;-59
2023/08/23 09:35:15;;;;;;;2.83;2.15;;;25.10;99.90;;;;;;5030062;28;20049;-57
2023/08/23 09:37:45;;;;;;;8.82;2.55;;;25.40;99.90;;;;;;5029509;28;20391;-59
2023/08/23 09:40:20;;;;;;;1.65;1.55;;;25.50;99.90;;;;;;5031509;28;20099;-58
2023/08/23 09:42:47;;;;;;;2.08;1.83;;;25.60;99.90;;;;;;5029704;28;20036;-56
2023/08/23 09:45:24;;;;;;;3.42;1.75;;;25.70;99.90;;;;;;5030246;28;20018;-57
2023/08/23 09:47:58;;;;;;;2.63;1.77;;;25.80;99.90;;;;;;5032907;28;20457;-59
2023/08/23 09:50:25;;;;;;;4.45;2.17;;;25.80;99.90;;;;;;5034411;28;20029;-59
2023/08/23 09:52:53;;;;;;;3.10;1.88;;;25.90;99.90;;;;;;5025844;28;20408;-59
2023/08/23 09:55:20;;;;;;;1.88;1.45;;;26.00;99.90;;;;;;5022829;28;20030;-56
2023/08/23 09:57:46;;;;;;;3.28;1.90;;;26.00;99.90;;;;;;5019909;28;20030;-59
2023/08/23 10:00:13;;;;;;;3.85;1.95;;;26.10;99.90;;;;;;5024052;28;20026;-58
2023/08/23 10:02:39;;;;;;;5.68;2.45;;;26.10;99.90;;;;;;5025706;28;20021;-57
2023/08/23 10:05:11;;;;;;;3.47;1.90;;;26.10;99.90;;;;;;5028818;28;20021;-57
2023/08/23 10:07:37;;;;;;;6.47;1.98;;;26.10;99.90;;;;;;5028556;28;20029;-59
2023/08/23 10:10:05;;;;;;;9.80;2.47;;;26.10;99.90;;;;;;5029062;28;20038;-58
2023/08/23 10:12:33;;;;;;;5.45;2.15;;;26.10;99.90;;;;;;5031991;28;20121;-58
2023/08/23 10:15:00;;;;;;;1.88;1.60;;;26.20;99.90;;;;;;5026175;28;20021;-59
2023/08/23 10:17:26;;;;;;;2.60;1.60;;;26.20;99.90;;;;;;5032363;28;20021;-59
2023/08/23 10:19:52;;;;;;;4.07;1.50;;;26.20;99.90;;;;;;5024617;28;20081;-59
2023/08/23 10:22:19;;;;;;;4.47;1.52;;;26.30;99.90;;;;;;5017496;28;20022;-58
2023/08/23 10:24:48;;;;;;;2.22;1.38;;;26.30;95.00;;;;;;5041919;28;20025;-58
2023/08/23 10:27:15;;;;;;;1.55;1.40;;;26.30;99.20;;;;;;5027982;28;20021;-59
2023/08/23 10:29:41;;;;;;;4.63;1.67;;;26.40;99.90;;;;;;5026620;28;20053;-57
2023/08/23 10:32:11;;;;;;;6.15;1.50;;;26.50;99.90;;;;;;5027187;28;20053;-57
2023/08/23 10:34:38;;;;;;;3.60;1.30;;;26.50;92.20;;;;;;5027175;28;20436;-58
2023/08/23 10:37:18;;;;;;;4.85;1.50;;;26.50;87.90;;;;;;5022891;28;20030;-56
2023/08/23 10:39:54;;;;;;;3.40;1.60;;;26.60;85.50;;;;;;5024395;28;20441;-57
2023/08/23 10:42:21;;;;;;;1.50;1.35;;;26.70;80.60;;;;;;5023928;28;20509;-59
2023/08/23 10:44:58;;;;;;;2.67;1.20;;;26.70;84.60;;;;;;5026767;28;20017;-56
2023/08/23 10:47:24;;;;;;;1.35;1.08;;;26.70;70.30;;;;;;5025799;28;20566;-58
2023/08/23 10:49:50;;;;;;;1.08;0.85;;;26.70;65.00;;;;;;5026097;28;20161;-57
2023/08/23 10:52:16;;;;;;;1.67;1.30;;;26.70;67.80;;;;;;5027341;28;20034;-58
2023/08/23 10:54:42;;;;;;;1.90;1.40;;;26.80;74.80;;;;;;5028703;28;20103;-58
2023/08/23 10:57:08;;;;;;;2.83;1.70;;;26.90;72.90;;;;;;5029992;28;20025;-58
2023/08/23 10:59:34;;;;;;;2.00;1.42;;;26.90;71.90;;;;;;5023986;28;20104;-60
2023/08/23 11:02:00;;;;;;;2.15;1.60;;;27.00;72.10;;;;;;5026120;28;20116;-58
2023/08/23 11:04:26;;;;;;;2.10;1.85;;;27.10;73.50;;;;;;5025410;28;20055;-58
2023/08/23 11:06:52;;;;;;;2.05;1.40;;;27.10;75.40;;;;;;5028764;28;20501;-59
2023/08/23 11:09:18;;;;;;;347.42;132.10;;;27.20;71.90;;;;;;5031185;28;20044;-57
2023/08/23 11:11:44;;;;;;;1.08;0.98;;;27.20;73.60;;;;;;5031933;28;20025;-59
2023/08/23 11:14:10;;;;;;;0.60;0.60;;;27.20;76.30;;;;;;5027770;28;20738;-56
2023/08/23 11:16:38;;;;;;;1.17;1.08;;;27.20;77.90;;;;;;5029316;28;20037;-58
2023/08/23 11:19:05;;;;;;;3.08;1.35;;;27.30;75.30;;;;;;5026285;28;20053;-59
2023/08/23 11:21:35;;;;;;;3.30;0.90;;;27.30;73.80;;;;;;5028048;28;20033;-60
2023/08/23 11:24:04;;;;;;;1.80;0.82;;;27.40;69.10;;;;;;5022843;28;20057;-59
2023/08/23 11:26:32;;;;;;;1.25;0.77;;;27.30;71.10;;;;;;5026520;28;20022;-60
2023/08/23 11:28:58;;;;;;;0.70;0.70;;;27.30;67.20;;;;;;5028929;28;20041;-59
2023/08/23 11:31:23;;;;;;;0.93;0.60;;;27.30;67.50;;;;;;5027606;28;20394;-58
2023/08/23 11:33:49;;;;;;;1.55;1.10;;;27.40;70.90;;;;;;5026074;28;20045;-57
2023/08/23 11:36:18;;;;;;;1.70;0.98;;;27.40;71.40;;;;;;5022947;28;20025;-58
2023/08/23 11:38:46;;;;;;;1.20;1.13;;;27.40;66.90;;;;;;5031590;28;20036;-58
2023/08/23 11:41:12;;;;;;;1.70;1.38;;;27.40;69.50;;;;;;5030839;28;20025;-57
2023/08/23 11:43:44;;;;;;;0.85;0.85;;;27.50;70.30;;;;;;5028991;28;20022;-57
2023/08/23 11:46:10;;;;;;;2.08;0.90;;;27.60;67.80;;;;;;5030654;28;20025;-57
2023/08/23 11:48:36;;;;;;;2.63;0.80;;;27.60;65.90;;;;;;5027802;28;20106;-58
2023/08/23 11:51:06;;;;;;;1.20;0.82;;;27.60;67.20;;;;;;5028865;28;20105;-59
2023/08/23 11:53:32;;;;;;;6.07;1.42;;;27.60;67.40;;;;;;5029602;28;20027;-57
2023/08/23 11:55:58;;;;;;;1.40;1.17;;;27.60;66.00;;;;;;5029034;28;20510;-57
2023/08/23 11:58:24;;;;;;;1.48;0.70;;;27.70;67.30;;;;;;5023251;28;20030;-59
2023/08/23 12:00:50;;;;;;;2.13;1.08;;;27.80;69.70;;;;;;5026017;28;20070;-57
2023/08/23 12:03:16;;;;;;;4.88;0.88;;;27.90;65.30;;;;;;5031862;28;20028;-58
2023/08/23 12:05:42;;;;;;;1.98;1.17;;;27.90;65.70;;;;;;5030777;28;20376;-58
2023/08/23 12:08:08;;;;;;;1.95;1.10;;;28.00;64.40;;;;;;5028267;28;20053;-58
2023/08/23 12:10:33;;;;;;;0.93;0.50;;;28.00;65.40;;;;;;5030608;28;20026;-59
2023/08/23 12:13:00;;;;;;;1.10;0.80;;;28.10;61.80;;;;;;5031665;28;20613;-58
2023/08/23 12:15:25;;;;;;;1.02;0.70;;;28.10;59.80;;;;;;5032281;28;20064;-59
2023/08/23 12:17:54;;;;;;;0.88;0.50;;;28.10;58.00;;;;;;5033085;28;20045;-57
2023/08/23 12:20:19;;;;;;;3.53;0.95;;;28.10;58.50;;;;;;5033654;28;20041;-57
2023/08/23 12:22:46;;;;;;;1.13;0.98;;;28.10;60.10;;;;;;5026531;28;20021;-58
2023/08/23 12:25:12;;;;;;;3.15;0.98;;;28.10;60.00;;;;;;5030437;28;20078;-58
2023/08/23 12:27:39;;;;;;;0.93;0.82;;;28.20;62.90;;;;;;5025279;28;20565;-56
2023/08/23 12:30:06;;;;;;;1.67;1.20;;;28.30;64.50;;;;;;5024471;28;20025;-58
2023/08/23 12:32:32;;;;;;;2.88;1.08;;;28.30;60.00;;;;;;5026288;28;20635;-59
2023/08/23 12:34:57;;;;;;;1.50;1.02;;;28.30;59.40;;;;;;5028323;28;20117;-57
2023/08/23 12:37:23;;;;;;;1.10;1.00;;;28.40;60.00;;;;;;5029159;28;20021;-58
2023/08/23 12:39:49;;;;;;;1.40;1.20;;;28.40;57.60;;;;;;5029701;28;20481;-57